Time;durP1;ratioP1;P1;durP2;ratioP2;P2;SDS_P1;SDS_P2;PMS_P1;PMS_P2;Temp;Humidity;BMP_temperature;BMP_pressure;BME280_temperature;BME280_humidity;BME280_pressure;Samples;Min_cycle;Max_cycle;Signal;HPM_P1;HPM_P2
2021/04/06 00:01:35;;;;;;;0.47;0.40;;;1.80;99.90;;;;;;4990724;28;20217;-73
2021/04/06 00:04:06;;;;;;;0.40;0.40;;;1.90;99.90;;;;;;4990550;28;20230;-73
2021/04/06 00:06:34;;;;;;;0.40;0.40;;;1.80;99.90;;;;;;4989630;28;20539;-73
2021/04/06 00:09:05;;;;;;;0.77;0.40;;;1.90;99.90;;;;;;4989837;28;20203;-73
2021/04/06 00:11:33;;;;;;;0.37;0.37;;;1.90;99.90;;;;;;4990774;28;20218;-73
2021/04/06 00:14:01;;;;;;;1.17;0.30;;;1.90;99.90;;;;;;4989594;28;20195;-73
2021/04/06 00:16:29;;;;;;;0.80;0.30;;;1.90;99.90;;;;;;4988223;28;20200;-73
2021/04/06 00:18:57;;;;;;;0.30;0.30;;;1.90;99.90;;;;;;4990334;28;20543;-73
2021/04/06 00:21:24;;;;;;;0.97;0.53;;;2.00;99.90;;;;;;4989953;28;20200;-73
2021/04/06 00:23:53;;;;;;;0.40;0.40;;;2.00;99.90;;;;;;4988996;28;20203;-73
2021/04/06 00:26:19;;;;;;;1.53;0.50;;;2.10;99.90;;;;;;4989857;28;20233;-73
2021/04/06 00:28:48;;;;;;;0.70;0.50;;;2.20;99.90;;;;;;4988975;28;20214;-73
2021/04/06 00:31:16;;;;;;;0.60;0.60;;;2.20;99.90;;;;;;4987629;28;20246;-73
2021/04/06 00:33:46;;;;;;;0.43;0.40;;;2.20;99.90;;;;;;4990166;28;20226;-74
2021/04/06 00:36:14;;;;;;;2.10;0.67;;;2.30;99.90;;;;;;4987998;28;20211;-73
2021/04/06 00:38:43;;;;;;;0.60;0.57;;;2.30;99.90;;;;;;4989619;28;20675;-74
2021/04/06 00:41:13;;;;;;;0.67;0.50;;;2.40;99.90;;;;;;4990352;28;20540;-73
2021/04/06 00:43:41;;;;;;;0.30;0.30;;;2.40;99.90;;;;;;4989539;28;20269;-73
2021/04/06 00:46:12;;;;;;;1.07;0.63;;;2.50;99.90;;;;;;4989858;28;20226;-73
2021/04/06 00:48:46;;;;;;;1.37;0.50;;;2.60;99.90;;;;;;4989906;28;20203;-73
2021/04/06 00:51:14;;;;;;;1.13;0.60;;;2.60;99.90;;;;;;4988247;28;20204;-74
2021/04/06 00:54:03;;;;;;;0.57;0.50;;;2.60;99.90;;;;;;4978401;28;20192;-74
2021/04/06 00:56:31;;;;;;;0.60;0.60;;;2.60;99.90;;;;;;4981766;28;20290;-74
2021/04/06 00:59:00;;;;;;;0.97;0.60;;;2.70;99.90;;;;;;4984541;28;20287;-73
2021/04/06 01:01:37;;;;;;;0.60;0.60;;;2.70;99.90;;;;;;4989942;28;20306;-73
2021/04/06 01:04:07;;;;;;;0.77;0.73;;;2.80;99.90;;;;;;4990311;28;20594;-73
2021/04/06 01:06:53;;;;;;;1.00;0.80;;;2.80;99.90;;;;;;4988061;28;20610;-74
2021/04/06 01:09:42;;;;;;;0.70;0.70;;;2.80;99.90;;;;;;4989315;28;20292;-73
2021/04/06 01:12:10;;;;;;;1.70;0.80;;;2.90;99.90;;;;;;4989642;28;20733;-74
2021/04/06 01:14:39;;;;;;;0.87;0.77;;;2.90;99.90;;;;;;4984206;28;20193;-74
2021/04/06 01:17:07;;;;;;;1.47;0.60;;;2.90;99.90;;;;;;4977801;28;20203;-73
2021/04/06 01:19:36;;;;;;;0.90;0.90;;;2.90;99.90;;;;;;4990537;28;20195;-73
2021/04/06 01:22:06;;;;;;;1.40;1.30;;;2.90;99.90;;;;;;4984558;28;20225;-74
2021/04/06 01:24:34;;;;;;;2.37;1.23;;;3.00;99.90;;;;;;4988775;28;20237;-74
2021/04/06 01:27:02;;;;;;;0.60;0.60;;;3.00;99.90;;;;;;4989080;28;20329;-73
2021/04/06 01:29:29;;;;;;;0.50;0.40;;;3.00;99.90;;;;;;4991994;28;20349;-73
2021/04/06 01:31:58;;;;;;;0.50;0.50;;;3.00;99.90;;;;;;4993305;28;20184;-73
2021/04/06 01:34:26;;;;;;;1.03;0.60;;;3.00;99.90;;;;;;4983335;28;20198;-74
2021/04/06 01:36:54;;;;;;;2.87;1.00;;;3.00;99.90;;;;;;4991801;28;20203;-73
2021/04/06 01:39:25;;;;;;;0.93;0.83;;;3.00;99.90;;;;;;4993480;28;20195;-74
2021/04/06 01:41:56;;;;;;;2.87;1.60;;;3.00;99.90;;;;;;4992347;28;20231;-74
2021/04/06 01:44:24;;;;;;;1.43;0.90;;;3.00;99.90;;;;;;4991811;28;20212;-74
2021/04/06 01:46:51;;;;;;;0.70;0.70;;;3.00;99.90;;;;;;4992598;28;20663;-74
2021/04/06 01:49:18;;;;;;;1.27;0.90;;;3.10;99.90;;;;;;4992485;28;20204;-74
2021/04/06 01:51:46;;;;;;;0.70;0.70;;;3.10;99.90;;;;;;4993195;28;20206;-74
2021/04/06 01:54:14;;;;;;;1.27;0.90;;;3.10;99.90;;;;;;4992867;28;20207;-74
2021/04/06 01:56:47;;;;;;;2.37;1.10;;;3.00;99.90;;;;;;4991860;28;20555;-74
2021/04/06 01:59:19;;;;;;;1.43;1.07;;;3.00;99.90;;;;;;4983927;28;20188;-74
2021/04/06 02:01:51;;;;;;;0.60;0.50;;;3.00;99.90;;;;;;4993232;28;20215;-74
2021/04/06 02:04:21;;;;;;;1.77;0.60;;;3.00;99.90;;;;;;4993279;28;20352;-74
2021/04/06 02:06:48;;;;;;;1.07;0.60;;;3.00;99.90;;;;;;4992189;28;20253;-74
2021/04/06 02:09:17;;;;;;;0.50;0.50;;;3.00;99.90;;;;;;4990156;28;20200;-74
2021/04/06 02:11:45;;;;;;;0.73;0.60;;;2.90;99.90;;;;;;4993511;28;20188;-74
2021/04/06 02:14:15;;;;;;;0.47;0.47;;;2.90;99.90;;;;;;4991071;28;20710;-74
2021/04/06 02:16:49;;;;;;;0.20;0.20;;;2.90;99.90;;;;;;4992983;28;20195;-74
2021/04/06 02:19:27;;;;;;;0.20;0.20;;;2.90;99.90;;;;;;4993257;28;20188;-74
2021/04/06 02:21:56;;;;;;;0.30;0.30;;;2.90;99.90;;;;;;4992336;28;20212;-74
2021/04/06 02:24:41;;;;;;;0.30;0.30;;;2.80;99.90;;;;;;4993171;28;20203;-74
2021/04/06 02:27:15;;;;;;;0.67;0.20;;;2.80;99.90;;;;;;4992467;28;20203;-74
2021/04/06 02:29:45;;;;;;;0.50;0.30;;;2.80;99.90;;;;;;4991444;28;20204;-74
2021/04/06 02:32:13;;;;;;;0.30;0.30;;;2.80;99.90;;;;;;4988767;28;20707;-74
2021/04/06 02:34:42;;;;;;;1.07;0.60;;;2.80;99.90;;;;;;4991828;28;20544;-74
2021/04/06 02:37:13;;;;;;;0.23;0.23;;;2.80;99.90;;;;;;4991764;28;20534;-74
2021/04/06 02:39:40;;;;;;;0.80;0.40;;;2.70;99.90;;;;;;4991109;28;20215;-74
2021/04/06 02:42:35;;;;;;;0.30;0.30;;;2.70;99.90;;;;;;4985731;28;20212;-74
2021/04/06 02:45:09;;;;;;;0.40;0.40;;;2.70;99.90;;;;;;4948119;29;20213;-74
2021/04/06 02:47:38;;;;;;;0.40;0.40;;;2.70;99.90;;;;;;4948626;29;20216;-74
2021/04/06 02:50:06;;;;;;;0.40;0.40;;;2.70;99.90;;;;;;4947792;29;20276;-74
2021/04/06 02:52:34;;;;;;;0.63;0.40;;;2.60;99.90;;;;;;4942449;29;20209;-74
2021/04/06 02:55:01;;;;;;;0.40;0.40;;;2.60;99.90;;;;;;4934219;29;20269;-74
2021/04/06 02:57:30;;;;;;;1.20;0.60;;;2.60;99.90;;;;;;4947682;29;20237;-74
2021/04/06 02:59:56;;;;;;;0.43;0.43;;;2.70;99.90;;;;;;4935040;29;20213;-75
2021/04/06 03:02:24;;;;;;;1.70;0.83;;;2.70;99.90;;;;;;4934531;29;20221;-74
2021/04/06 03:04:51;;;;;;;2.10;0.80;;;2.70;99.90;;;;;;4951265;29;20715;-74
2021/04/06 03:07:23;;;;;;;2.00;0.60;;;2.70;99.90;;;;;;4948934;29;20215;-74
2021/04/06 03:09:55;;;;;;;3.67;0.90;;;2.70;99.90;;;;;;4943560;29;20721;-74
2021/04/06 03:12:26;;;;;;;4.90;0.93;;;2.70;99.90;;;;;;4950268;29;20193;-74
2021/04/06 03:14:53;;;;;;;3.13;1.10;;;2.70;99.90;;;;;;4950901;29;20402;-74
2021/04/06 03:17:20;;;;;;;3.27;1.07;;;2.70;99.90;;;;;;4934123;29;20209;-74
2021/04/06 03:19:55;;;;;;;3.90;1.20;;;2.80;99.90;;;;;;4956405;28;20687;-74
2021/04/06 03:22:22;;;;;;;3.80;1.00;;;2.80;99.90;;;;;;4988120;28;20239;-74
2021/04/06 03:24:50;;;;;;;6.57;1.43;;;2.80;99.90;;;;;;4992659;28;20293;-73
2021/04/06 03:27:26;;;;;;;3.77;1.10;;;2.90;99.90;;;;;;4989473;28;20517;-74
2021/04/06 03:29:53;;;;;;;5.47;1.10;;;2.90;99.90;;;;;;4992044;28;20611;-73
2021/04/06 03:32:22;;;;;;;4.60;0.90;;;2.90;99.90;;;;;;4991002;28;20195;-72
2021/04/06 03:34:52;;;;;;;5.27;0.90;;;2.90;99.90;;;;;;4989022;28;20539;-73
2021/04/06 03:37:21;;;;;;;4.17;1.07;;;3.00;99.90;;;;;;4987369;28;20199;-73
2021/04/06 03:39:48;;;;;;;2.60;1.07;;;3.10;99.90;;;;;;4990502;28;20235;-74
2021/04/06 03:42:22;;;;;;;3.93;1.20;;;3.10;99.90;;;;;;4989923;28;20227;-74
2021/04/06 03:44:49;;;;;;;5.10;1.33;;;3.10;99.90;;;;;;4991876;28;20221;-73
2021/04/06 03:47:15;;;;;;;4.23;1.10;;;3.10;99.90;;;;;;4985692;28;20196;-74
2021/04/06 03:49:48;;;;;;;6.30;1.27;;;3.20;99.90;;;;;;4991816;28;20200;-74
2021/04/06 03:52:16;;;;;;;3.23;1.07;;;3.20;99.90;;;;;;4989923;28;20516;-74
2021/04/06 03:54:45;;;;;;;7.33;1.23;;;3.20;99.90;;;;;;4990112;28;20282;-74
2021/04/06 03:57:31;;;;;;;8.40;1.30;;;3.30;99.90;;;;;;4990733;28;20358;-74
2021/04/06 03:59:58;;;;;;;1.83;1.07;;;3.30;99.90;;;;;;4974149;28;20215;-73
2021/04/06 04:02:25;;;;;;;4.57;1.03;;;3.40;99.90;;;;;;4982721;28;20258;-74
2021/04/06 04:04:52;;;;;;;4.33;1.27;;;3.30;99.90;;;;;;4989537;28;20211;-73
2021/04/06 04:07:20;;;;;;;7.57;1.50;;;3.30;99.90;;;;;;4986833;28;20232;-73
2021/04/06 04:09:47;;;;;;;4.73;1.17;;;3.30;99.90;;;;;;4989284;28;20275;-73
2021/04/06 04:12:14;;;;;;;1.50;1.00;;;3.30;99.90;;;;;;4988422;28;20628;-73
2021/04/06 04:14:40;;;;;;;4.00;1.20;;;3.30;99.90;;;;;;4989657;28;20690;-73
2021/04/06 04:17:09;;;;;;;2.80;0.90;;;3.40;99.90;;;;;;4990020;28;20207;-75
2021/04/06 04:19:35;;;;;;;3.27;1.20;;;3.40;99.90;;;;;;4990682;28;20274;-74
2021/04/06 04:22:03;;;;;;;5.60;1.57;;;3.40;99.90;;;;;;4988822;28;20540;-73
2021/04/06 04:24:30;;;;;;;4.87;1.43;;;3.40;99.90;;;;;;4988102;28;20196;-73
2021/04/06 04:26:57;;;;;;;8.37;1.20;;;3.50;99.90;;;;;;4989924;28;20196;-73
2021/04/06 04:29:24;;;;;;;4.37;1.30;;;3.50;99.90;;;;;;4978873;28;20191;-73
2021/04/06 04:31:51;;;;;;;4.80;1.20;;;3.50;99.90;;;;;;4990353;28;20653;-73
2021/04/06 04:34:18;;;;;;;6.43;1.17;;;3.50;99.90;;;;;;4990338;28;20203;-73
2021/04/06 04:36:44;;;;;;;4.50;1.40;;;3.60;99.90;;;;;;4986071;28;20208;-73
2021/04/06 04:39:11;;;;;;;5.03;1.60;;;3.60;99.90;;;;;;4986855;28;20647;-73
2021/04/06 04:41:39;;;;;;;4.50;1.17;;;3.70;99.90;;;;;;4989164;28;20219;-74
2021/04/06 04:44:06;;;;;;;3.67;1.10;;;3.70;99.90;;;;;;4990051;28;20207;-74
2021/04/06 04:46:33;;;;;;;7.63;1.20;;;3.70;99.90;;;;;;4988515;28;20207;-73
2021/04/06 04:49:00;;;;;;;11.10;1.93;;;3.70;99.90;;;;;;4988392;28;20489;-74
2021/04/06 04:51:26;;;;;;;9.20;1.30;;;3.80;99.90;;;;;;4988662;28;20235;-74
2021/04/06 04:53:53;;;;;;;4.93;1.20;;;3.90;99.90;;;;;;4988207;28;20307;-74
2021/04/06 04:56:20;;;;;;;4.67;1.40;;;3.90;99.90;;;;;;4987308;28;20207;-74
2021/04/06 04:58:47;;;;;;;6.47;1.53;;;4.00;99.90;;;;;;4988681;28;20259;-74
2021/04/06 05:01:14;;;;;;;5.63;1.40;;;4.00;99.90;;;;;;5000528;28;20224;-74
2021/04/06 05:03:40;;;;;;;4.67;1.30;;;4.00;99.90;;;;;;4980893;28;20658;-73
2021/04/06 05:06:07;;;;;;;7.40;1.33;;;4.00;99.90;;;;;;4984950;28;20291;-74
2021/04/06 05:08:34;;;;;;;4.57;1.30;;;4.00;99.90;;;;;;4975968;28;20204;-74
2021/04/06 05:11:00;;;;;;;3.70;1.07;;;4.00;99.90;;;;;;4989990;28;20200;-74
2021/04/06 05:13:27;;;;;;;4.20;1.50;;;4.10;99.90;;;;;;4988895;28;20217;-74
2021/04/06 05:15:55;;;;;;;6.00;1.53;;;4.10;99.90;;;;;;4988761;28;20200;-73
2021/04/06 05:18:22;;;;;;;3.83;1.47;;;4.20;99.90;;;;;;4989019;28;20207;-74
2021/04/06 05:20:48;;;;;;;3.80;1.30;;;4.30;99.90;;;;;;4988986;28;20211;-73
2021/04/06 05:23:15;;;;;;;4.03;1.23;;;4.40;99.90;;;;;;4987430;28;20345;-73
2021/04/06 05:25:41;;;;;;;5.27;0.87;;;4.50;99.90;;;;;;4988549;28;20203;-74
2021/04/06 05:28:08;;;;;;;4.00;1.30;;;4.60;99.90;;;;;;4990183;28;20195;-74
2021/04/06 05:30:35;;;;;;;8.10;1.23;;;4.80;99.90;;;;;;4987155;28;20199;-74
2021/04/06 05:33:02;;;;;;;3.80;0.97;;;4.90;99.90;;;;;;4983325;28;20196;-73
2021/04/06 05:35:29;;;;;;;4.33;1.23;;;5.00;99.90;;;;;;4991236;28;20211;-74
2021/04/06 05:37:55;;;;;;;5.23;1.10;;;5.10;99.90;;;;;;4989706;28;20354;-74
2021/04/06 05:40:22;;;;;;;6.77;1.03;;;5.10;99.90;;;;;;4986875;28;20208;-74
2021/04/06 05:42:49;;;;;;;3.93;1.37;;;5.20;99.90;;;;;;4986404;28;20221;-74
2021/04/06 05:45:19;;;;;;;2.83;1.33;;;5.30;99.90;;;;;;4987123;28;20496;-73
2021/04/06 05:47:48;;;;;;;3.93;1.07;;;5.30;99.90;;;;;;4989703;28;20651;-74
2021/04/06 05:50:15;;;;;;;4.77;1.40;;;5.50;99.90;;;;;;4989402;28;20200;-74
2021/04/06 05:52:43;;;;;;;3.20;1.20;;;5.60;99.90;;;;;;4987592;28;20693;-73
2021/04/06 05:55:11;;;;;;;4.90;1.30;;;5.70;99.90;;;;;;4984676;28;20199;-74
2021/04/06 05:57:38;;;;;;;4.00;1.50;;;5.80;99.90;;;;;;4983417;28;20611;-74
2021/04/06 06:00:06;;;;;;;3.37;1.53;;;6.10;99.90;;;;;;4989667;28;20196;-74
2021/04/06 06:02:34;;;;;;;4.27;1.20;;;6.40;99.90;;;;;;4986161;28;20604;-74
2021/04/06 06:05:01;;;;;;;4.23;1.50;;;6.80;99.90;;;;;;4977726;28;20210;-74
2021/04/06 06:07:28;;;;;;;1.90;0.87;;;7.10;99.90;;;;;;4984971;28;20240;-74
2021/04/06 06:09:55;;;;;;;6.97;1.30;;;7.20;99.90;;;;;;4984231;28;20196;-75
2021/04/06 06:12:21;;;;;;;2.03;1.07;;;7.40;99.90;;;;;;4988139;28;20194;-74
2021/04/06 06:14:51;;;;;;;2.83;0.90;;;7.50;99.90;;;;;;4978296;28;20204;-74
2021/04/06 06:17:19;;;;;;;3.07;1.07;;;7.80;99.90;;;;;;4987469;28;20194;-74
2021/04/06 06:19:48;;;;;;;2.87;0.93;;;7.90;99.90;;;;;;4992423;28;20223;-75
2021/04/06 06:22:17;;;;;;;5.07;1.27;;;8.00;99.90;;;;;;4980149;28;20650;-73
2021/04/06 06:24:47;;;;;;;6.67;1.33;;;8.20;99.90;;;;;;4972471;28;20567;-73
2021/04/06 06:27:35;;;;;;;4.17;1.17;;;8.60;99.90;;;;;;4997285;28;20208;-73
2021/04/06 06:30:26;;;;;;;3.40;1.57;;;8.90;99.90;;;;;;4979881;28;20763;-73
2021/04/06 06:33:16;;;;;;;2.67;1.20;;;8.90;99.90;;;;;;4989813;28;20485;-73
2021/04/06 06:35:45;;;;;;;4.53;1.40;;;8.80;99.90;;;;;;4980631;28;20815;-73
2021/04/06 06:38:22;;;;;;;3.30;1.30;;;8.90;99.90;;;;;;4987371;28;20201;-73
2021/04/06 06:40:52;;;;;;;4.10;1.37;;;8.90;99.90;;;;;;4989880;28;20220;-73
2021/04/06 06:43:21;;;;;;;4.27;1.30;;;8.80;99.90;;;;;;4980887;28;20199;-73
2021/04/06 06:45:50;;;;;;;3.83;1.57;;;9.40;99.90;;;;;;4987794;28;20655;-74
2021/04/06 06:48:27;;;;;;;4.33;1.30;;;9.90;99.90;;;;;;4973988;28;20204;-73
2021/04/06 06:50:55;;;;;;;6.27;1.60;;;9.80;99.90;;;;;;4977452;28;20198;-73
2021/04/06 06:53:32;;;;;;;3.03;1.23;;;9.50;99.90;;;;;;4978625;28;20609;-73
2021/04/06 06:56:00;;;;;;;4.70;1.80;;;9.40;99.90;;;;;;4974795;28;20196;-74
2021/04/06 06:58:30;;;;;;;4.63;1.60;;;9.40;99.90;;;;;;4987990;28;20240;-72
2021/04/06 07:00:57;;;;;;;6.10;1.47;;;9.70;99.90;;;;;;4989741;28;20268;-74
2021/04/06 07:03:24;;;;;;;6.13;1.47;;;9.80;99.90;;;;;;4980686;28;20735;-73
2021/04/06 07:05:51;;;;;;;3.00;1.30;;;9.70;99.90;;;;;;4987632;28;20203;-73
2021/04/06 07:08:30;;;;;;;3.27;1.23;;;9.50;99.90;;;;;;4986902;28;20196;-73
2021/04/06 07:10:58;;;;;;;2.23;1.50;;;9.40;99.90;;;;;;4985113;28;20192;-73
2021/04/06 07:13:31;;;;;;;1.33;1.00;;;9.70;99.90;;;;;;4981830;28;20223;-74
2021/04/06 07:15:58;;;;;;;4.20;1.57;;;10.30;99.90;;;;;;4984617;28;20220;-74
2021/04/06 07:18:27;;;;;;;5.83;1.57;;;10.90;99.80;;;;;;4971603;28;20284;-74
2021/04/06 07:20:58;;;;;;;6.23;1.20;;;11.10;98.80;;;;;;4982886;28;20212;-74
2021/04/06 07:23:34;;;;;;;3.43;1.47;;;11.00;98.30;;;;;;4986607;28;20206;-74
2021/04/06 07:26:04;;;;;;;1.73;1.13;;;10.80;98.20;;;;;;4987394;28;20199;-73
2021/04/06 07:28:31;;;;;;;4.67;1.60;;;10.50;98.20;;;;;;4977137;28;20564;-74
2021/04/06 07:30:58;;;;;;;3.43;1.20;;;10.30;97.70;;;;;;4983313;28;21199;-75
2021/04/06 07:33:27;;;;;;;3.07;1.30;;;10.30;97.60;;;;;;4978091;28;20243;-74
2021/04/06 07:35:55;;;;;;;5.33;1.33;;;10.20;97.40;;;;;;4985257;28;20200;-74
2021/04/06 07:38:22;;;;;;;4.30;1.30;;;10.00;96.80;;;;;;4989395;28;20273;-74
2021/04/06 07:40:51;;;;;;;2.57;1.27;;;9.90;97.30;;;;;;4986591;28;20254;-73
2021/04/06 07:43:18;;;;;;;2.47;1.20;;;9.80;97.40;;;;;;4988322;28;20204;-74
2021/04/06 07:45:46;;;;;;;5.83;1.50;;;10.10;96.90;;;;;;4986952;28;20333;-74
2021/04/06 07:48:28;;;;;;;3.63;1.33;;;10.80;95.50;;;;;;4987679;28;20239;-74
2021/04/06 07:50:55;;;;;;;6.93;2.07;;;11.10;94.00;;;;;;4983853;28;20217;-73
2021/04/06 07:53:25;;;;;;;2.80;1.30;;;11.10;92.80;;;;;;4983924;28;20188;-75
2021/04/06 07:55:53;;;;;;;2.63;1.30;;;11.40;92.90;;;;;;4973214;28;20204;-73
2021/04/06 07:58:47;;;;;;;3.63;1.73;;;13.20;91.00;;;;;;4981112;28;20321;-75
2021/04/06 08:01:25;;;;;;;4.40;1.40;;;14.70;83.60;;;;;;4920508;29;20244;-75
2021/04/06 08:04:03;;;;;;;6.37;1.80;;;16.90;74.80;;;;;;4924311;29;20305;-73
2021/04/06 08:06:40;;;;;;;4.43;1.30;;;17.90;65.50;;;;;;4907863;29;20277;-73
2021/04/06 08:09:45;;;;;;;4.43;1.50;;;17.80;62.40;;;;;;4916281;29;20295;-74
2021/04/06 08:12:15;;;;;;;4.43;1.50;;;17.50;61.60;;;;;;4917079;29;20802;-74
2021/04/06 08:14:44;;;;;;;4.93;2.00;;;17.20;61.40;;;;;;4926123;29;20211;-74
2021/04/06 08:17:41;;;;;;;2.93;1.50;;;16.70;61.40;;;;;;4900464;29;20268;-74
2021/04/06 08:20:38;;;;;;;3.77;1.67;;;15.90;60.00;;;;;;4916546;29;20406;-75
2021/04/06 08:23:07;;;;;;;3.40;1.40;;;15.10;60.70;;;;;;4902214;29;20684;-74
2021/04/06 08:25:46;;;;;;;2.10;1.20;;;14.30;62.00;;;;;;4906347;29;20370;-74
2021/04/06 08:28:40;;;;;;;3.83;1.47;;;13.60;63.20;;;;;;4907218;29;20305;-75
2021/04/06 08:31:32;;;;;;;2.83;1.47;;;13.10;63.90;;;;;;4861002;29;20291;-72
2021/04/06 08:34:39;;;;;;;6.17;1.87;;;12.80;64.40;;;;;;4857054;29;20793;-73
2021/04/06 08:37:32;;;;;;;5.20;1.60;;;12.30;63.80;;;;;;4845163;29;20221;-73
2021/04/06 08:39:59;;;;;;;4.80;1.40;;;12.10;65.00;;;;;;4947897;29;20763;-74
2021/04/06 08:42:26;;;;;;;5.33;1.40;;;11.80;65.60;;;;;;4927074;29;20712;-74
2021/04/06 08:44:58;;;;;;;5.30;1.80;;;11.60;66.00;;;;;;4932336;29;20200;-74
2021/04/06 08:47:44;;;;;;;5.03;1.67;;;11.40;66.10;;;;;;4927387;29;20675;-74
2021/04/06 08:50:16;;;;;;;3.80;1.37;;;11.20;67.10;;;;;;4928118;29;20232;-74
2021/04/06 08:52:45;;;;;;;4.17;1.37;;;11.30;67.70;;;;;;4930399;29;20208;-74
2021/04/06 08:55:13;;;;;;;5.17;2.03;;;11.60;67.10;;;;;;4946564;29;20205;-74
2021/04/06 08:57:41;;;;;;;5.43;1.57;;;11.50;66.40;;;;;;4948325;29;20238;-73
2021/04/06 09:00:11;;;;;;;3.13;1.30;;;11.20;66.80;;;;;;4941975;29;20271;-74
2021/04/06 09:02:37;;;;;;;5.90;1.77;;;11.00;67.50;;;;;;4929177;29;20251;-74
2021/04/06 09:05:05;;;;;;;4.60;1.30;;;10.80;68.00;;;;;;4945806;29;20255;-74
2021/04/06 09:07:36;;;;;;;4.17;1.60;;;10.60;68.60;;;;;;4974488;28;20647;-75
2021/04/06 09:10:07;;;;;;;7.40;1.80;;;10.40;69.10;;;;;;4983675;28;20681;-73
2021/04/06 09:12:35;;;;;;;3.77;1.30;;;10.40;70.00;;;;;;4985957;28;20209;-74
2021/04/06 09:15:04;;;;;;;3.40;1.37;;;10.60;70.40;;;;;;4989015;28;20199;-74
2021/04/06 09:17:32;;;;;;;3.37;1.57;;;10.80;70.00;;;;;;4986551;28;20207;-74
2021/04/06 09:20:00;;;;;;;2.40;1.50;;;11.10;69.70;;;;;;4981991;28;20379;-74
2021/04/06 09:22:27;;;;;;;2.83;1.30;;;11.30;68.90;;;;;;4978543;28;20325;-74
2021/04/06 09:24:54;;;;;;;3.10;1.60;;;11.40;68.80;;;;;;4985704;28;20198;-74
2021/04/06 09:27:22;;;;;;;2.87;1.40;;;12.00;68.90;;;;;;4984806;28;20201;-74
2021/04/06 09:29:50;;;;;;;3.50;1.57;;;12.20;67.40;;;;;;4989936;28;20285;-74
2021/04/06 09:32:21;;;;;;;2.77;1.53;;;12.00;66.00;;;;;;4980873;28;20199;-74
2021/04/06 09:34:49;;;;;;;6.37;1.73;;;11.60;66.10;;;;;;4987574;28;20193;-75
2021/04/06 09:37:17;;;;;;;2.53;1.30;;;11.30;66.60;;;;;;4985410;28;20770;-74
2021/04/06 09:39:46;;;;;;;3.83;1.70;;;11.20;67.20;;;;;;4984172;28;20206;-74
2021/04/06 09:42:14;;;;;;;4.30;1.30;;;11.20;67.70;;;;;;4984045;28;20554;-74
2021/04/06 09:44:43;;;;;;;4.70;1.50;;;11.50;68.40;;;;;;4987340;28;20203;-74
2021/04/06 09:47:12;;;;;;;3.63;1.70;;;13.20;68.30;;;;;;4974695;28;20740;-74
2021/04/06 09:49:45;;;;;;;3.93;1.60;;;14.60;64.40;;;;;;4990734;28;20198;-74
2021/04/06 09:52:14;;;;;;;4.57;1.53;;;15.30;62.00;;;;;;4985107;28;20204;-75
2021/04/06 09:54:48;;;;;;;2.67;1.27;;;15.10;59.30;;;;;;4982289;28;20507;-74
2021/04/06 09:57:15;;;;;;;4.37;1.77;;;14.50;59.50;;;;;;4979237;28;20228;-74
2021/04/06 09:59:46;;;;;;;5.37;1.37;;;13.90;59.80;;;;;;4984349;28;20698;-74
2021/04/06 10:02:16;;;;;;;3.10;1.50;;;13.40;59.70;;;;;;4988218;28;20270;-74
2021/04/06 10:04:46;;;;;;;4.50;1.67;;;13.00;61.00;;;;;;4991819;28;20196;-75
2021/04/06 10:07:16;;;;;;;6.47;2.07;;;12.70;60.20;;;;;;4987591;28;20196;-74
2021/04/06 10:09:45;;;;;;;3.70;1.60;;;12.40;60.80;;;;;;4990018;28;20428;-73
2021/04/06 10:12:13;;;;;;;5.83;1.83;;;12.30;62.00;;;;;;4982947;28;20192;-75
2021/04/06 10:14:41;;;;;;;3.97;1.43;;;12.40;62.00;;;;;;4985401;28;20217;-74
2021/04/06 10:17:10;;;;;;;1.73;1.37;;;12.20;61.20;;;;;;4987994;28;20709;-74
2021/04/06 10:19:39;;;;;;;3.33;1.60;;;12.10;61.70;;;;;;4987971;28;20196;-74
2021/04/06 10:22:09;;;;;;;3.07;1.37;;;11.90;61.70;;;;;;4981780;28;20207;-74
2021/04/06 10:24:38;;;;;;;5.67;1.67;;;11.90;62.00;;;;;;4985251;28;20209;-74
2021/04/06 10:27:19;;;;;;;3.37;1.63;;;11.80;61.60;;;;;;4984956;28;20202;-74
2021/04/06 10:29:51;;;;;;;4.00;1.60;;;12.00;61.90;;;;;;4985516;28;20209;-73
2021/04/06 10:32:28;;;;;;;4.17;1.60;;;12.50;61.60;;;;;;4978094;28;20293;-73
2021/04/06 10:34:57;;;;;;;4.47;1.60;;;14.20;61.30;;;;;;4986080;28;20203;-74
2021/04/06 10:37:24;;;;;;;6.33;2.27;;;17.20;58.80;;;;;;4981424;28;20205;-74
2021/04/06 10:39:51;;;;;;;2.93;1.50;;;19.80;54.10;;;;;;4988735;28;20211;-74
2021/04/06 10:42:19;;;;;;;4.57;1.73;;;22.10;50.80;;;;;;4980304;28;20200;-74
2021/04/06 10:44:47;;;;;;;3.67;2.00;;;24.00;47.90;;;;;;4988891;28;20188;-75
2021/04/06 10:47:26;;;;;;;8.45;2.25;;;25.50;43.60;;;;;;4991025;28;20211;-74
2021/04/06 10:49:54;;;;;;;2.33;1.80;;;26.90;41.00;;;;;;4982957;28;20207;-74
2021/04/06 10:52:29;;;;;;;4.00;1.85;;;28.00;38.80;;;;;;4981195;28;20548;-74
2021/04/06 10:54:56;;;;;;;7.15;1.80;;;28.50;38.10;;;;;;4983847;28;20231;-74
2021/04/06 10:57:30;;;;;;;2.63;1.77;;;28.90;35.90;;;;;;4984549;28;20758;-74
2021/04/06 10:59:57;;;;;;;4.03;1.98;;;28.30;35.60;;;;;;4985088;28;20301;-74
2021/04/06 11:02:27;;;;;;;5.72;2.50;;;28.00;35.00;;;;;;4988452;28;20226;-75
2021/04/06 11:04:53;;;;;;;4.35;1.70;;;27.90;34.00;;;;;;4990240;28;20196;-74
2021/04/06 11:07:28;;;;;;;3.10;1.83;;;27.30;32.60;;;;;;4966567;28;20258;-74
2021/04/06 11:10:05;;;;;;;5.88;2.00;;;25.70;33.20;;;;;;4977246;28;20207;-74
2021/04/06 11:12:32;;;;;;;78.30;16.67;;;24.30;33.20;;;;;;4981363;28;20188;-74
2021/04/06 11:14:59;;;;;;;25.08;6.07;;;23.40;34.00;;;;;;4979034;28;20203;-74
2021/04/06 11:17:27;;;;;;;8.68;2.42;;;23.90;33.60;;;;;;4982380;28;20271;-73
2021/04/06 11:19:57;;;;;;;5.43;2.30;;;23.80;33.70;;;;;;4985030;28;20547;-74
2021/04/06 11:22:24;;;;;;;5.15;2.05;;;24.50;33.50;;;;;;4981292;28;20203;-74
2021/04/06 11:24:52;;;;;;;4.78;1.80;;;25.50;33.10;;;;;;4985708;28;20315;-75
2021/04/06 11:27:19;;;;;;;5.50;2.33;;;26.20;32.90;;;;;;4988211;28;20540;-74
2021/04/06 11:29:47;;;;;;;2.50;1.83;;;25.90;31.60;;;;;;4987443;28;20206;-74
2021/04/06 11:32:16;;;;;;;3.42;1.80;;;24.80;32.10;;;;;;4981887;28;20195;-74
2021/04/06 11:34:44;;;;;;;3.85;1.67;;;23.70;32.40;;;;;;4982046;28;20746;-73
2021/04/06 11:37:12;;;;;;;3.78;1.95;;;22.50;33.20;;;;;;5000865;28;20192;-74
2021/04/06 11:39:43;;;;;;;4.20;2.03;;;21.60;33.70;;;;;;4981323;28;20192;-74
2021/04/06 11:42:11;;;;;;;4.57;1.75;;;20.60;33.80;;;;;;4986891;28;20216;-73
2021/04/06 11:44:38;;;;;;;3.42;1.77;;;20.00;34.60;;;;;;4988358;28;20204;-74
2021/04/06 11:47:06;;;;;;;4.30;1.77;;;20.20;34.80;;;;;;4984926;28;20547;-73
2021/04/06 11:49:33;;;;;;;3.22;1.52;;;20.40;34.90;;;;;;4989122;28;20238;-74
2021/04/06 11:52:01;;;;;;;3.97;1.77;;;20.70;34.70;;;;;;4976341;28;20200;-74
2021/04/06 11:54:28;;;;;;;3.20;2.03;;;21.20;34.60;;;;;;4978055;28;20196;-74
2021/04/06 11:56:55;;;;;;;2.72;1.95;;;21.60;34.50;;;;;;4975127;28;20235;-74
2021/04/06 11:59:22;;;;;;;4.40;1.67;;;22.10;34.20;;;;;;4987774;28;20192;-74
2021/04/06 12:01:49;;;;;;;3.50;1.70;;;22.30;34.20;;;;;;4988832;28;20524;-74
2021/04/06 12:04:16;;;;;;;5.78;1.80;;;22.20;34.20;;;;;;4978686;28;20193;-74
2021/04/06 12:06:44;;;;;;;4.43;1.80;;;21.70;34.30;;;;;;4980452;28;20196;-73
2021/04/06 12:09:13;;;;;;;2.60;1.52;;;21.20;34.60;;;;;;4987700;28;20192;-74
2021/04/06 12:11:40;;;;;;;3.85;1.73;;;20.70;35.10;;;;;;4988125;28;20191;-74
2021/04/06 12:14:07;;;;;;;5.25;1.80;;;20.30;34.70;;;;;;4990160;28;20208;-73
2021/04/06 12:16:34;;;;;;;2.10;1.40;;;19.80;34.70;;;;;;4980210;28;20210;-73
2021/04/06 12:19:01;;;;;;;2.47;1.23;;;19.50;34.90;;;;;;4987085;28;20188;-73
2021/04/06 12:21:27;;;;;;;1.83;1.42;;;19.20;35.10;;;;;;4969623;28;20216;-72
2021/04/06 12:23:54;;;;;;;3.22;1.60;;;18.90;35.30;;;;;;4977436;28;20200;-70
2021/04/06 12:26:22;;;;;;;3.00;1.52;;;18.60;35.30;;;;;;4985538;28;20296;-71
2021/04/06 12:28:49;;;;;;;1.95;1.30;;;18.30;35.30;;;;;;4977776;28;20195;-72
2021/04/06 12:31:15;;;;;;;5.40;1.50;;;18.00;35.40;;;;;;4989793;28;20218;-72
2021/04/06 12:33:43;;;;;;;3.65;1.75;;;17.90;35.80;;;;;;4986020;28;20559;-72
2021/04/06 12:36:10;;;;;;;3.27;1.80;;;17.60;35.70;;;;;;4976044;28;20229;-71
2021/04/06 12:38:37;;;;;;;3.83;1.55;;;17.30;35.80;;;;;;4986265;28;20215;-73
2021/04/06 12:41:03;;;;;;;2.60;1.70;;;17.00;35.90;;;;;;4972903;28;20221;-72
2021/04/06 12:43:32;;;;;;;4.13;1.50;;;16.70;36.60;;;;;;4992340;28;20220;-73
2021/04/06 12:45:59;;;;;;;3.60;1.67;;;16.50;35.90;;;;;;4976577;28;20204;-72
2021/04/06 12:48:25;;;;;;;3.40;1.30;;;16.20;35.70;;;;;;4984611;28;20225;-72
2021/04/06 12:50:52;;;;;;;2.83;1.47;;;15.90;35.60;;;;;;4981346;28;20651;-72
2021/04/06 12:53:19;;;;;;;3.73;1.40;;;15.60;36.00;;;;;;4973024;28;20266;-72
2021/04/06 12:55:45;;;;;;;3.10;1.37;;;15.40;36.80;;;;;;4985553;28;20678;-72
2021/04/06 12:58:12;;;;;;;1.70;1.53;;;15.20;36.60;;;;;;4987695;28;20227;-73
2021/04/06 13:00:40;;;;;;;3.63;1.67;;;15.00;37.00;;;;;;4984007;28;20202;-72
2021/04/06 13:03:06;;;;;;;7.13;2.33;;;14.80;37.20;;;;;;4981623;28;20243;-74
2021/04/06 13:05:33;;;;;;;47.43;10.13;;;14.60;37.90;;;;;;4986435;28;20203;-73
2021/04/06 13:08:00;;;;;;;4.80;1.83;;;14.40;38.70;;;;;;4984355;28;20558;-72